Time;durP1;ratioP1;P1;durP2;ratioP2;P2;SDS_P1;SDS_P2;PMS_P1;PMS_P2;Temp;Humidity;BMP_temperature;BMP_pressure;BME280_temperature;BME280_humidity;BME280_pressure;Samples;Min_cycle;Max_cycle;Signal;HPM_P1;HPM_P2
2023/04/14 18:55:21;;;;;;;10.40;6.50;;;;;;;11.44;79.17;97013.34;102697;1285;648733;-66
2023/04/14 18:57:50;;;;;;;14.30;7.80;;;;;;;11.47;78.56;97015.27;103972;1272;268668;-65
2023/04/14 19:00:17;;;;;;;9.50;6.30;;;;;;;11.44;78.76;97010.52;104505;1270;94299;-66
2023/04/14 19:02:44;;;;;;;9.00;6.40;;;;;;;11.41;78.81;97011.40;104449;1269;95164;-66
2023/04/14 19:05:12;;;;;;;12.10;7.80;;;;;;;11.37;78.77;97012.10;104552;1268;94246;-65
2023/04/14 19:07:39;;;;;;;11.80;7.10;;;;;;;11.31;79.13;97009.30;104394;1269;95180;-65
2023/04/14 19:10:07;;;;;;;19.40;10.90;;;;;;;11.26;79.30;97005.13;104232;1269;94293;-65
2023/04/14 19:12:36;;;;;;;14.00;9.40;;;;;;;11.22;79.78;97006.14;104430;1280;94348;-65
2023/04/14 19:15:04;;;;;;;10.50;6.90;;;;;;;11.17;79.48;97002.61;104175;1272;107799;-65
2023/04/14 19:17:34;;;;;;;11.70;8.40;;;;;;;11.17;79.79;96998.04;104813;1264;98129;-66
2023/04/14 19:20:03;;;;;;;13.30;8.50;;;;;;;11.13;79.95;96995.64;104854;1262;108563;-65
2023/04/14 19:22:30;;;;;;;11.40;6.80;;;;;;;11.09;80.26;96994.82;104693;1267;95329;-66
2023/04/14 19:24:57;;;;;;;11.90;6.60;;;;;;;11.06;80.29;96997.09;104910;1262;95317;-65
2023/04/14 19:27:25;;;;;;;11.90;7.50;;;;;;;11.05;80.07;96999.59;104728;1258;95211;-64
2023/04/14 19:29:52;;;;;;;11.90;7.00;;;;;;;11.04;80.17;96992.91;104531;1275;95984;-64
2023/04/14 19:32:19;;;;;;;11.60;7.50;;;;;;;11.03;80.11;96994.06;104824;1262;96126;-64
2023/04/14 19:34:46;;;;;;;9.60;7.00;;;;;;;11.04;80.14;96995.64;104871;1263;95198;-64
2023/04/14 19:37:15;;;;;;;11.40;7.10;;;;;;;11.06;79.93;96993.50;104739;1257;95168;-66
2023/04/14 19:39:44;;;;;;;12.40;8.30;;;;;;;11.04;79.96;96998.88;104445;1260;108618;-66
2023/04/14 19:42:11;;;;;;;25.70;13.80;;;;;;;11.03;80.14;97002.61;104887;1263;95135;-66
2023/04/14 19:44:38;;;;;;;12.70;6.80;;;;;;;11.01;80.29;96999.97;104866;1258;95275;-65
2023/04/14 19:47:05;;;;;;;9.30;6.90;;;;;;;10.99;80.25;97003.54;104840;1274;95921;-64
2023/04/14 19:49:32;;;;;;;12.40;8.50;;;;;;;10.95;80.41;97002.52;104766;1260;95845;-65
2023/04/14 19:52:00;;;;;;;12.70;8.80;;;;;;;10.92;80.50;96998.38;104598;1261;95194;-66
2023/04/14 19:54:27;;;;;;;16.20;9.10;;;;;;;10.89;80.68;96997.06;104630;1264;95259;-71
2023/04/14 19:56:54;;;;;;;14.30;8.60;;;;;;;10.88;80.52;97004.70;104695;1262;95294;-69
2023/04/14 19:59:22;;;;;;;15.00;10.40;;;;;;;10.90;80.50;97011.32;104647;1262;96137;-68
2023/04/14 20:01:50;;;;;;;18.10;11.50;;;;;;;10.92;80.33;97009.96;104896;1263;95202;-69
2023/04/14 20:04:17;;;;;;;31.90;15.20;;;;;;;10.95;80.40;97011.75;104709;1265;95282;-69
2023/04/14 20:06:44;;;;;;;34.60;16.60;;;;;;;10.96;80.25;97007.38;104869;1264;95275;-69
2023/04/14 20:09:11;;;;;;;44.60;19.60;;;;;;;10.97;80.44;97014.45;104836;1262;96094;-68
2023/04/14 20:11:38;;;;;;;52.60;24.60;;;;;;;10.97;80.48;97008.88;104838;1262;95246;-69
2023/04/14 20:14:05;;;;;;;23.50;12.30;;;;;;;10.94;80.39;97013.05;104838;1262;95193;-69
2023/04/14 20:16:32;;;;;;;19.10;10.70;;;;;;;10.94;80.28;97012.41;104929;1258;95894;-69
2023/04/14 20:18:59;;;;;;;19.30;11.10;;;;;;;10.95;80.28;97014.78;104808;1262;108622;-69
2023/04/14 20:21:26;;;;;;;20.80;12.10;;;;;;;10.93;80.66;97009.98;104867;1262;95244;-69
2023/04/14 20:23:53;;;;;;;24.80;13.40;;;;;;;10.90;80.93;97008.27;104789;1260;95889;-67
2023/04/14 20:26:21;;;;;;;53.20;26.40;;;;;;;10.88;81.11;97005.73;104688;1275;95646;-70
2023/04/14 20:28:49;;;;;;;34.90;19.40;;;;;;;10.85;81.13;97001.19;104776;1262;95298;-70
2023/04/14 20:31:16;;;;;;;18.00;11.10;;;;;;;10.83;81.17;96999.96;104827;1263;95274;-66
2023/04/14 20:33:43;;;;;;;29.00;15.90;;;;;;;10.81;81.54;97000.31;105048;1259;95192;-65
2023/04/14 20:36:10;;;;;;;19.50;10.50;;;;;;;10.82;81.44;97006.83;104799;1263;95223;-67
2023/04/14 20:38:37;;;;;;;16.80;10.70;;;;;;;10.83;81.37;97000.83;104736;1262;95187;-66
2023/04/14 20:41:04;;;;;;;19.40;11.00;;;;;;;10.85;81.13;96999.54;104607;1263;95823;-70
2023/04/14 20:43:35;;;;;;;26.50;14.80;;;;;;;10.85;81.14;97004.96;104806;1262;95305;-67
2023/04/14 20:46:02;;;;;;;17.20;9.80;;;;;;;10.85;81.05;97009.48;104813;1273;95269;-66
2023/04/14 20:48:30;;;;;;;15.60;9.80;;;;;;;10.84;81.10;97015.17;104759;1259;95194;-68
2023/04/14 20:50:58;;;;;;;14.50;8.40;;;;;;;10.83;81.10;97015.39;104824;1262;108069;-69
2023/04/14 20:53:27;;;;;;;13.80;8.10;;;;;;;10.80;81.17;97019.16;104560;1262;99217;-66
2023/04/14 20:55:55;;;;;;;12.00;7.90;;;;;;;10.79;81.22;97020.38;104752;1275;108371;-65
2023/04/14 20:58:22;;;;;;;12.10;7.20;;;;;;;10.77;81.22;97025.51;104700;1261;95230;-66
2023/04/14 21:00:50;;;;;;;11.90;8.00;;;;;;;10.79;80.83;97036.20;104637;1265;97583;-67
2023/04/14 21:03:17;;;;;;;11.70;6.90;;;;;;;10.82;80.57;97040.83;104714;1257;95177;-66
2023/04/14 21:05:45;;;;;;;10.10;7.20;;;;;;;10.85;80.56;97042.45;104866;1263;95195;-65
2023/04/14 21:08:12;;;;;;;12.80;7.50;;;;;;;10.89;80.26;97047.16;104767;1261;108512;-66
2023/04/14 21:10:40;;;;;;;12.20;7.60;;;;;;;10.90;80.02;97055.35;104921;1261;95178;-66
2023/04/14 21:13:27;;;;;;;10.90;6.50;;;;;;;10.91;80.08;97055.29;104612;1258;95194;-66
2023/04/14 21:16:14;;;;;;;10.50;7.00;;;;;;;10.90;80.12;97053.07;104831;1257;108866;-67
2023/04/14 21:18:42;;;;;;;13.20;7.20;;;;;;;10.89;80.14;97056.09;104720;1261;99427;-70
2023/04/14 21:21:12;;;;;;;14.50;7.70;;;;;;;10.89;79.99;97060.96;104913;1256;95279;-66
2023/04/14 21:23:39;;;;;;;9.80;5.90;;;;;;;10.91;79.98;97076.50;104913;1262;95202;-65
2023/04/14 21:26:07;;;;;;;13.60;6.30;;;;;;;10.91;79.87;97073.61;104902;1257;96729;-67
2023/04/14 21:28:34;;;;;;;15.10;6.90;;;;;;;10.90;80.19;97076.79;104806;1263;95193;-66
2023/04/14 21:31:02;;;;;;;10.70;7.30;;;;;;;10.89;80.16;97077.27;104962;1262;95225;-67
2023/04/14 21:33:31;;;;;;;11.90;7.10;;;;;;;10.88;80.40;97074.39;104567;1266;108765;-67
2023/04/14 21:35:59;;;;;;;13.00;7.40;;;;;;;10.87;80.41;97082.59;104942;1263;95263;-66
2023/04/14 21:38:26;;;;;;;14.90;8.00;;;;;;;10.86;80.31;97085.39;104716;1260;95292;-67
2023/04/14 21:40:53;;;;;;;13.00;7.60;;;;;;;10.85;80.53;97088.40;104953;1257;109509;-67
2023/04/14 21:43:21;;;;;;;10.30;6.60;;;;;;;10.82;80.76;97093.11;104994;1257;95291;-67
2023/04/14 21:45:49;;;;;;;13.60;7.30;;;;;;;10.79;80.95;97093.83;104907;1262;95221;-68
2023/04/14 21:48:17;;;;;;;12.00;7.80;;;;;;;10.76;81.29;97091.48;104831;1262;95234;-69
2023/04/14 21:50:45;;;;;;;15.50;7.50;;;;;;;10.76;81.04;97101.96;104739;1265;96223;-67
2023/04/14 21:53:12;;;;;;;14.20;7.90;;;;;;;10.75;81.19;97107.58;104913;1272;95256;-67
2023/04/14 21:55:40;;;;;;;14.90;8.80;;;;;;;10.77;81.20;97112.55;104933;1262;99164;-64
2023/04/14 21:58:07;;;;;;;12.60;7.90;;;;;;;10.78;81.21;97114.32;104916;1260;95244;-66
2023/04/14 22:00:36;;;;;;;13.60;7.10;;;;;;;10.80;81.17;97117.27;104886;1262;95109;-67
2023/04/14 22:03:03;;;;;;;12.20;7.50;;;;;;;10.81;81.12;97119.30;104729;1261;95194;-65
2023/04/14 22:05:31;;;;;;;14.20;7.30;;;;;;;10.79;81.10;97116.84;104698;1260;109431;-66
2023/04/14 22:07:58;;;;;;;12.80;7.90;;;;;;;10.76;81.06;97120.61;104937;1274;95212;-66
2023/04/14 22:10:31;;;;;;;30.80;13.10;;;;;;;10.75;81.22;97124.48;104915;1267;108353;-66
2023/04/14 22:13:03;;;;;;;31.10;14.40;;;;;;;10.70;81.54;97130.63;104912;1262;95215;-68
2023/04/14 22:15:31;;;;;;;24.90;12.70;;;;;;;10.62;81.65;97134.20;104743;1263;95283;-66
2023/04/14 22:18:00;;;;;;;21.00;11.50;;;;;;;10.54;81.94;97136.26;104498;1275;107747;-66
2023/04/14 22:20:27;;;;;;;23.40;13.40;;;;;;;10.48;82.41;97137.98;104604;1260;98568;-67
2023/04/14 22:22:55;;;;;;;35.50;17.30;;;;;;;10.42;83.26;97148.05;104831;1262;95246;-67
2023/04/14 22:25:22;;;;;;;33.90;17.90;;;;;;;10.37;83.44;97145.88;104724;1262;95248;-67
2023/04/14 22:27:49;;;;;;;32.60;17.70;;;;;;;10.34;83.58;97148.52;104616;1256;96277;-67
2023/04/14 22:30:16;;;;;;;28.20;15.30;;;;;;;10.30;83.99;97151.24;104639;1262;95270;-67
2023/04/14 22:32:44;;;;;;;33.50;15.90;;;;;;;10.30;83.36;97159.31;104891;1271;95445;-66
2023/04/14 22:35:11;;;;;;;30.60;14.50;;;;;;;10.30;83.17;97162.20;104612;1262;96152;-67
2023/04/14 22:37:38;;;;;;;31.60;16.10;;;;;;;10.28;83.00;97154.53;104813;1262;95218;-67
2023/04/14 22:40:08;;;;;;;28.50;14.00;;;;;;;10.25;82.89;97151.73;104819;1280;95219;-67
2023/04/14 22:42:35;;;;;;;31.80;16.70;;;;;;;10.19;82.95;97155.55;104940;1260;109481;-67
2023/04/14 22:45:03;;;;;;;25.30;14.20;;;;;;;10.12;82.59;97153.33;104922;1271;95200;-66
2023/04/14 22:47:30;;;;;;;28.50;14.10;;;;;;;10.06;82.59;97158.32;104911;1263;95350;-67
2023/04/14 22:49:57;;;;;;;29.00;14.80;;;;;;;10.00;82.39;97167.94;104937;1263;95818;-68
2023/04/14 22:52:26;;;;;;;21.50;10.80;;;;;;;9.97;82.30;97172.05;105350;1272;95193;-67
2023/04/14 22:54:53;;;;;;;21.10;11.10;;;;;;;9.93;81.74;97175.38;105000;1260;108691;-67
2023/04/14 22:57:21;;;;;;;21.80;10.70;;;;;;;9.88;81.50;97172.51;105069;1271;95982;-67
2023/04/14 22:59:48;;;;;;;20.70;10.50;;;;;;;9.84;81.36;97174.12;104725;1260;108836;-66
2023/04/14 23:02:16;;;;;;;15.00;7.40;;;;;;;9.79;81.02;97179.38;104994;1261;97963;-68
2023/04/14 23:04:43;;;;;;;15.70;9.10;;;;;;;9.71;80.65;97172.64;104917;1270;96548;-67
2023/04/14 23:07:11;;;;;;;14.40;7.70;;;;;;;9.63;80.76;97174.19;104830;1260;97458;-67
2023/04/14 23:09:38;;;;;;;13.10;6.80;;;;;;;9.55;80.32;97177.02;104960;1260;96544;-67
2023/04/14 23:12:06;;;;;;;23.00;12.50;;;;;;;9.46;80.50;97182.58;104943;1260;96525;-67
2023/04/14 23:14:33;;;;;;;14.20;7.00;;;;;;;9.34;80.62;97184.57;104980;1260;96539;-68
2023/04/14 23:17:01;;;;;;;16.30;8.80;;;;;;;9.23;80.58;97187.81;104978;1260;97724;-66
2023/04/14 23:19:28;;;;;;;9.30;5.10;;;;;;;9.14;80.31;97178.23;104981;1260;109952;-66
2023/04/14 23:21:56;;;;;;;11.90;5.30;;;;;;;9.08;80.34;97181.63;105001;1260;96538;-66
2023/04/14 23:24:23;;;;;;;8.10;4.60;;;;;;;9.01;80.44;97182.91;104826;1271;96541;-66
2023/04/14 23:26:50;;;;;;;6.30;3.80;;;;;;;8.96;80.32;97182.81;104751;1259;96669;-66
2023/04/14 23:29:17;;;;;;;5.50;2.90;;;;;;;8.92;80.13;97186.89;104985;1261;97858;-66
2023/04/14 23:31:45;;;;;;;6.30;4.10;;;;;;;8.88;79.98;97191.84;104995;1261;96526;-67
2023/04/14 23:34:12;;;;;;;5.90;4.00;;;;;;;8.84;80.10;97196.64;105007;1261;96670;-66
2023/04/14 23:36:40;;;;;;;9.10;5.50;;;;;;;8.80;79.95;97194.91;104784;1260;97836;-66
2023/04/14 23:39:07;;;;;;;5.80;3.10;;;;;;;8.75;80.05;97204.98;104745;1264;96545;-66
2023/04/14 23:41:34;;;;;;;8.50;3.70;;;;;;;8.70;79.80;97209.71;105005;1270;96584;-67
2023/04/14 23:44:01;;;;;;;4.90;2.50;;;;;;;8.65;79.65;97213.64;104986;1270;97224;-66
2023/04/14 23:46:28;;;;;;;4.00;2.10;;;;;;;8.63;79.69;97219.19;104908;1260;97870;-66
2023/04/14 23:48:57;;;;;;;4.40;2.00;;;;;;;8.62;79.67;97225.30;104963;1261;96616;-66
2023/04/14 23:51:36;;;;;;;3.80;2.30;;;;;;;8.61;79.34;97224.16;104963;1258;96539;-65
2023/04/14 23:54:04;;;;;;;4.60;2.50;;;;;;;8.61;79.55;97227.36;104677;1261;97810;-65
2023/04/14 23:56:31;;;;;;;4.90;3.30;;;;;;;8.60;79.42;97226.77;104807;1260;96565;-65
2023/04/14 23:58:58;;;;;;;5.40;3.90;;;;;;;8.58;79.24;97224.51;105001;1260;96599;-65
